Terminal Aerodrome Forecast
Issued by NWS Boston, MA

Home | Current Version | Previous Version | Text Only | Print | Product List | Glossary On
Versions: 1 2 3 4 5 6 7 8 9 10 11 12 13 14 15 16 17 18 19 20 21 22 23 24 25 26 27 28 29 30 31 32 33 34 35 36 37 38 39 40 41 42 43 44 45 46 47 48 49 50
106
FTUS41 KBOX 281002 AAB
TAFBDL
TAF AMD
KBDL 281002Z 2810/2912 00000KT 1 1/2SM -RA BR VV002
      TEMPO 2810/2813 1/2SM FG OVC001
     FM281300 00000KT 2SM -DZ BR OVC008
     FM281600 00000KT P6SM VCSH OVC010
     FM281900 00000KT 6SM -RA OVC010
     FM282100 00000KT 5SM -RA OVC008
     FM291000 34004KT P6SM BKN040=

USA.gov is the U.S. government's official web portal to all federal, state and local government web resources and services.